createdAt,value
2023-05-05T05:03:12.662Z,25.00
2023-05-05T05:04:12.511Z,25.00
2023-05-05T05:05:12.620Z,25.00
2023-05-05T05:06:12.641Z,25.00
2023-05-05T05:07:12.639Z,25.00
2023-05-05T05:08:12.623Z,25.00
2023-05-05T05:09:12.736Z,0.00
2023-05-05T05:10:12.750Z,0.00
2023-05-05T05:11:12.737Z,0.00
2023-05-05T05:12:12.804Z,0.00
2023-05-05T05:13:13.159Z,0.00
2023-05-05T05:14:13.911Z,0.00
2023-05-05T05:15:12.910Z,0.00
2023-05-05T05:16:12.993Z,0.00
2023-05-05T05:17:14.083Z,0.00
2023-05-05T05:18:13.039Z,0.00
2023-05-05T05:19:14.125Z,0.00
2023-05-05T05:20:13.152Z,0.00
2023-05-05T05:21:13.211Z,0.00
2023-05-05T05:22:13.284Z,0.00
2023-05-05T05:23:14.347Z,0.00
2023-05-05T05:24:14.454Z,0.00
2023-05-05T05:25:13.460Z,0.00
2023-05-05T05:26:13.512Z,0.00
2023-05-05T05:27:13.492Z,0.00
2023-05-05T05:28:13.548Z,0.00
2023-05-05T05:29:13.595Z,0.00
2023-05-05T05:30:13.613Z,3.11
2023-05-05T05:31:14.773Z,24.95
2023-05-05T05:32:13.783Z,25.37
2023-05-05T05:33:13.726Z,25.35
2023-05-05T05:34:14.849Z,25.00
2023-05-05T05:35:13.826Z,26.34
2023-05-05T05:36:13.899Z,25.27
2023-05-05T05:37:14.849Z,25.46
2023-05-05T05:38:14.897Z,25.53
2023-05-05T05:39:14.953Z,25.25
2023-05-05T05:40:14.907Z,27.23
2023-05-05T05:41:14.988Z,25.80
2023-05-05T05:42:14.940Z,27.35
2023-05-05T05:43:13.985Z,25.84
2023-05-05T05:44:13.940Z,29.12
2023-05-05T05:45:14.996Z,27.41
2023-05-05T05:46:14.028Z,25.94
2023-05-05T05:47:14.024Z,27.90
2023-05-05T05:48:15.063Z,25.80
2023-05-05T05:49:15.099Z,25.87
2023-05-05T05:50:15.180Z,28.97
2023-05-05T05:51:14.246Z,25.00
2023-05-05T05:52:14.259Z,26.32
2023-05-05T05:53:14.285Z,26.18
2023-05-05T05:54:15.333Z,25.00
2023-05-05T05:55:14.298Z,27.27
2023-05-05T05:56:15.333Z,26.58
2023-05-05T05:57:14.432Z,24.66
2023-05-05T05:58:14.412Z,27.70
2023-05-05T05:59:14.443Z,27.91
2023-05-05T06:00:15.538Z,25.67
2023-05-05T06:01:14.609Z,25.94
2023-05-05T06:02:14.756Z,28.57
2023-05-05T06:03:14.993Z,26.37
2023-05-05T06:04:14.723Z,25.06
2023-05-05T06:05:14.709Z,31.94
2023-05-05T06:06:15.796Z,28.30
2023-05-05T06:07:14.833Z,25.88
2023-05-05T06:08:15.908Z,25.62
2023-05-05T06:09:14.899Z,29.92
2023-05-05T06:10:26.666Z,26.64
2023-05-05T06:11:15.941Z,26.83
2023-05-05T06:12:15.959Z,26.65
2023-05-05T06:13:15.061Z,25.79
2023-05-05T06:14:14.970Z,23.83
2023-05-05T06:15:14.927Z,20.66
2023-05-05T06:16:15.057Z,25.00
2023-05-05T06:17:15.131Z,26.13
2023-05-05T06:18:15.128Z,28.13
2023-05-05T06:19:15.038Z,29.12
2023-05-05T06:20:15.887Z,30.96
2023-05-05T06:21:15.861Z,33.87
2023-05-05T06:22:15.091Z,38.48
2023-05-05T06:23:15.929Z,43.71
2023-05-05T06:24:15.978Z,45.54
2023-05-05T06:25:14.993Z,47.98
2023-05-05T06:26:15.112Z,51.17
2023-05-05T06:27:16.066Z,59.36
2023-05-05T06:28:15.015Z,68.03
2023-05-05T06:29:15.042Z,74.50
2023-05-05T06:30:15.020Z,77.14
2023-05-05T06:31:15.081Z,80.11
2023-05-05T06:32:15.046Z,82.39
2023-05-05T06:33:16.073Z,81.80
2023-05-05T06:34:16.090Z,82.98
2023-05-05T06:35:15.037Z,86.05
2023-05-05T06:36:16.053Z,85.82
2023-05-05T06:37:15.084Z,88.36
2023-05-05T06:38:15.056Z,93.44
2023-05-05T06:39:16.087Z,95.79
2023-05-05T06:40:15.172Z,97.15
2023-05-05T06:41:16.216Z,100.68
2023-05-05T06:42:15.254Z,100.96
2023-05-05T06:43:16.294Z,100.12
2023-05-05T06:44:16.361Z,101.39
2023-05-05T06:45:16.464Z,103.03
2023-05-05T06:46:15.543Z,106.93
2023-05-05T06:47:16.575Z,106.32
2023-05-05T06:48:15.660Z,107.33
2023-05-05T06:49:15.659Z,109.10
2023-05-05T06:50:15.683Z,108.55
2023-05-05T06:51:16.725Z,113.07
2023-05-05T06:52:17.266Z,115.98
2023-05-05T06:53:15.810Z,116.73
2023-05-05T06:54:15.871Z,112.59
2023-05-05T06:55:16.089Z,124.06
2023-05-05T06:56:16.000Z,121.87
2023-05-05T06:57:16.181Z,123.51
2023-05-05T06:58:16.030Z,121.73
2023-05-05T06:59:17.115Z,122.73
2023-05-05T07:00:16.053Z,122.59
2023-05-05T07:01:17.213Z,122.31
2023-05-05T07:02:16.151Z,125.21
2023-05-05T07:03:16.346Z,123.82
2023-05-05T07:04:16.328Z,126.02
2023-05-05T07:05:16.223Z,129.66
2023-05-05T07:06:17.241Z,128.65
2023-05-05T07:07:17.316Z,131.02
2023-05-05T07:08:16.335Z,134.12
2023-05-05T07:09:17.205Z,134.44
2023-05-05T07:10:16.368Z,134.04
2023-05-05T07:11:16.506Z,137.29
2023-05-05T07:12:16.396Z,137.26
2023-05-05T07:13:16.606Z,141.09
2023-05-05T07:14:16.486Z,143.59
2023-05-05T07:15:27.470Z,148.56
2023-05-05T07:16:17.478Z,148.70
2023-05-05T07:17:17.447Z,96.05
2023-05-05T07:18:16.424Z,71.72
2023-05-05T07:19:17.417Z,79.29
2023-05-05T07:20:17.397Z,69.49
2023-05-05T07:21:17.414Z,81.22
2023-05-05T07:22:17.396Z,81.84
2023-05-05T07:23:17.414Z,88.22
2023-05-05T07:24:16.359Z,91.25
2023-05-05T07:25:16.586Z,96.44
2023-05-05T07:26:16.451Z,98.03
2023-05-05T07:27:16.711Z,102.74
2023-05-05T07:28:17.370Z,104.05
2023-05-05T07:29:16.376Z,107.12
2023-05-05T07:30:18.327Z,107.01
2023-05-05T07:31:17.531Z,105.48
2023-05-05T07:32:16.670Z,107.68
2023-05-05T07:33:17.589Z,108.01
2023-05-05T07:34:16.599Z,108.21
2023-05-05T07:35:16.555Z,109.34
2023-05-05T07:36:16.777Z,109.35
2023-05-05T07:37:16.661Z,112.27
2023-05-05T07:38:16.722Z,115.22
2023-05-05T07:39:16.783Z,115.28
2023-05-05T07:40:16.688Z,115.98
2023-05-05T07:41:16.643Z,116.46
2023-05-05T07:42:16.808Z,118.68
2023-05-05T07:43:16.982Z,122.31
2023-05-05T07:44:16.715Z,126.41
2023-05-05T07:45:16.756Z,130.27
2023-05-05T07:46:16.923Z,132.73
2023-05-05T07:47:16.799Z,134.90
2023-05-05T07:48:17.371Z,133.90
2023-05-05T07:49:17.791Z,138.35
2023-05-05T07:50:17.010Z,137.86
2023-05-05T07:51:16.713Z,142.08
2023-05-05T07:52:16.776Z,143.46
2023-05-05T07:53:17.751Z,145.14
2023-05-05T07:54:16.780Z,142.38
2023-05-05T07:55:17.748Z,146.86
2023-05-05T07:56:18.396Z,148.97
2023-05-05T07:57:17.750Z,152.21
2023-05-05T07:58:17.859Z,153.15
2023-05-05T07:59:16.878Z,154.23
2023-05-05T08:00:16.827Z,154.90
2023-05-05T08:01:17.810Z,155.83
2023-05-05T08:02:17.891Z,154.47
2023-05-05T08:03:16.830Z,154.84
2023-05-05T08:04:16.903Z,151.30
2023-05-05T08:05:17.018Z,155.83
2023-05-05T08:06:16.965Z,155.68
2023-05-05T08:07:16.947Z,155.09
2023-05-05T08:08:17.094Z,156.04
2023-05-05T08:09:17.047Z,158.15
2023-05-05T08:10:17.074Z,158.04
2023-05-05T08:11:17.263Z,159.67
2023-05-05T08:12:17.278Z,161.91
2023-05-05T08:13:17.322Z,164.81
2023-05-05T08:14:17.325Z,164.36
2023-05-05T08:15:18.499Z,161.37
2023-05-05T08:16:17.495Z,166.31
2023-05-05T08:17:18.474Z,166.33
2023-05-05T08:18:18.531Z,141.92
2023-05-05T08:19:29.197Z,131.14
2023-05-05T08:20:17.545Z,131.93
2023-05-05T08:21:17.573Z,128.66
2023-05-05T08:22:17.480Z,115.32
2023-05-05T08:23:18.494Z,118.27
2023-05-05T08:24:18.232Z,110.70
2023-05-05T08:25:17.546Z,99.16
2023-05-05T08:26:17.502Z,107.62
2023-05-05T08:27:18.449Z,111.25
2023-05-05T08:28:17.576Z,124.96
2023-05-05T08:29:17.522Z,127.63
2023-05-05T08:30:17.477Z,128.44
2023-05-05T08:31:17.585Z,132.96
2023-05-05T08:32:17.479Z,133.61
2023-05-05T08:33:18.409Z,136.75
2023-05-05T08:34:18.639Z,139.49
2023-05-05T08:35:17.461Z,142.91
2023-05-05T08:36:18.612Z,142.75
2023-05-05T08:37:17.441Z,144.61
2023-05-05T08:38:17.378Z,147.45
2023-05-05T08:39:18.424Z,148.76
2023-05-05T08:40:17.369Z,146.37
2023-05-05T08:41:17.399Z,152.93
2023-05-05T08:42:32.746Z,158.84
2023-05-05T08:43:18.881Z,159.42
2023-05-05T08:44:17.322Z,159.57
2023-05-05T08:45:18.362Z,161.44
2023-05-05T08:46:17.348Z,164.28
2023-05-05T08:47:18.434Z,168.75
2023-05-05T08:48:18.460Z,170.56
2023-05-05T08:49:17.523Z,171.46
2023-05-05T08:50:18.342Z,156.80
2023-05-05T08:51:18.343Z,161.04
2023-05-05T08:52:17.377Z,163.41
2023-05-05T08:53:18.326Z,159.38
2023-05-05T08:54:18.343Z,139.07
2023-05-05T08:55:17.323Z,125.30
2023-05-05T08:56:18.249Z,109.85
2023-05-05T08:57:18.236Z,107.83
2023-05-05T08:58:17.262Z,106.87
2023-05-05T08:59:18.357Z,108.76
2023-05-05T09:00:18.348Z,116.11
2023-05-05T09:01:17.322Z,122.43
2023-05-05T09:02:17.333Z,129.61
2023-05-05T09:03:18.440Z,131.41
2023-05-05T09:04:17.215Z,140.44
2023-05-05T09:05:17.223Z,144.17
2023-05-05T09:06:17.242Z,148.42
2023-05-05T09:07:18.315Z,151.41
2023-05-05T09:08:17.304Z,157.15
2023-05-05T09:09:17.392Z,158.58
2023-05-05T09:10:18.404Z,162.01
2023-05-05T09:11:17.456Z,164.12
2023-05-05T09:12:17.454Z,166.96
2023-05-05T09:13:18.550Z,167.45
2023-05-05T09:14:17.529Z,169.88
2023-05-05T09:15:17.553Z,173.10
2023-05-05T09:16:17.664Z,175.45
2023-05-05T09:17:17.676Z,174.82
2023-05-05T09:18:17.769Z,179.39
2023-05-05T09:19:18.806Z,182.25
2023-05-05T09:20:17.819Z,181.31
2023-05-05T09:21:17.870Z,184.71
2023-05-05T09:22:17.833Z,186.12
2023-05-05T09:23:17.960Z,188.07
2023-05-05T09:24:18.019Z,189.23
2023-05-05T09:25:19.017Z,185.64
2023-05-05T09:26:19.013Z,199.94
2023-05-05T09:27:18.125Z,202.41
2023-05-05T09:28:19.147Z,200.97
2023-05-05T09:29:19.266Z,203.08
2023-05-05T09:30:19.294Z,200.47
2023-05-05T09:31:19.424Z,196.19
2023-05-05T09:32:18.552Z,200.14
2023-05-05T09:33:18.688Z,198.88
2023-05-05T09:34:19.513Z,197.88
2023-05-05T09:35:19.698Z,201.95
2023-05-05T09:36:18.672Z,198.90
2023-05-05T09:37:18.621Z,202.89
2023-05-05T09:38:18.691Z,207.74
2023-05-05T09:39:18.736Z,208.97
2023-05-05T09:40:18.677Z,210.33
2023-05-05T09:41:18.721Z,213.27
2023-05-05T09:42:18.752Z,211.97
2023-05-05T09:43:18.827Z,215.79
2023-05-05T09:44:18.798Z,218.23
2023-05-05T09:45:19.902Z,219.88
2023-05-05T09:46:18.963Z,221.65
2023-05-05T09:47:28.926Z,222.40
2023-05-05T09:48:20.194Z,222.63
2023-05-05T09:49:19.535Z,222.68
2023-05-05T09:50:19.246Z,222.81
2023-05-05T09:51:20.125Z,224.32
2023-05-05T09:52:19.023Z,224.19
2023-05-05T09:53:18.940Z,226.66
2023-05-05T09:54:19.270Z,224.85
2023-05-05T09:55:18.909Z,227.69
2023-05-05T09:56:18.838Z,226.04
2023-05-05T09:57:19.855Z,225.57
2023-05-05T09:58:20.086Z,225.68
2023-05-05T09:59:19.991Z,222.08
2023-05-05T10:00:19.129Z,225.67
2023-05-05T10:01:19.278Z,218.89
2023-05-05T10:02:19.316Z,222.64
2023-05-05T10:03:19.367Z,221.39
2023-05-05T10:04:20.208Z,221.43
2023-05-05T10:05:20.269Z,221.70
2023-05-05T10:06:20.362Z,222.78
2023-05-05T10:07:19.544Z,226.44
2023-05-05T10:08:19.451Z,230.84
2023-05-05T10:09:19.430Z,231.99
2023-05-05T10:10:20.466Z,228.37
2023-05-05T10:11:20.497Z,229.01
2023-05-05T10:12:19.611Z,228.00
2023-05-05T10:13:19.742Z,228.78
2023-05-05T10:14:19.734Z,228.38
2023-05-05T10:15:19.750Z,231.31
2023-05-05T10:16:19.969Z,232.82
2023-05-05T10:17:19.860Z,233.64
2023-05-05T10:18:19.976Z,234.65
2023-05-05T10:19:19.958Z,232.82
2023-05-05T10:20:20.131Z,228.80
2023-05-05T10:21:20.128Z,234.84
2023-05-05T10:22:21.279Z,231.15
2023-05-05T10:23:21.174Z,230.95
2023-05-05T10:24:20.218Z,232.45
2023-05-05T10:25:20.216Z,231.91
2023-05-05T10:26:21.345Z,231.59
2023-05-05T10:27:21.311Z,233.79
2023-05-05T10:28:21.497Z,233.01
2023-05-05T10:29:21.612Z,237.17
2023-05-05T10:30:20.555Z,237.30
2023-05-05T10:31:26.343Z,236.52
2023-05-05T10:32:50.237Z,236.80
2023-05-05T10:34:20.853Z,237.09
2023-05-05T10:35:21.778Z,238.34
2023-05-05T10:36:20.750Z,238.90
2023-05-05T10:37:20.749Z,238.93
2023-05-05T10:38:23.601Z,241.19
2023-05-05T10:39:20.791Z,236.87
2023-05-05T10:40:20.719Z,238.01
2023-05-05T10:41:20.785Z,238.46
2023-05-05T10:42:20.683Z,239.72
2023-05-05T10:43:20.754Z,241.03
2023-05-05T10:44:20.790Z,241.80
2023-05-05T10:45:21.714Z,243.50
2023-05-05T10:46:20.792Z,240.21
2023-05-05T10:47:20.727Z,240.31
2023-05-05T10:48:20.694Z,239.88
2023-05-05T10:49:20.641Z,239.76
2023-05-05T10:50:20.628Z,236.25
2023-05-05T10:51:35.171Z,236.71
2023-05-05T10:52:21.701Z,237.14
2023-05-05T10:53:20.695Z,238.49
2023-05-05T10:54:20.763Z,239.11
2023-05-05T10:55:20.664Z,240.20
2023-05-05T10:56:20.587Z,243.45
2023-05-05T10:57:20.581Z,241.57
2023-05-05T10:58:21.578Z,244.28
2023-05-05T10:59:20.573Z,241.94
2023-05-05T11:00:21.575Z,239.94
2023-05-05T11:01:21.580Z,244.34
2023-05-05T11:02:20.590Z,242.40
2023-05-05T11:03:20.662Z,241.95
2023-05-05T11:04:21.621Z,247.34
2023-05-05T11:05:20.589Z,246.06
2023-05-05T11:06:20.558Z,247.81
2023-05-05T11:07:20.570Z,247.07
2023-05-05T11:08:21.549Z,248.10
2023-05-05T11:09:20.582Z,248.94
2023-05-05T11:10:21.666Z,244.89
2023-05-05T11:11:21.500Z,244.33
2023-05-05T11:12:20.497Z,247.33
2023-05-05T11:13:21.680Z,247.59
2023-05-05T11:14:20.513Z,249.43
2023-05-05T11:15:20.529Z,248.12
2023-05-05T11:16:20.458Z,247.77
2023-05-05T11:17:20.425Z,248.98
2023-05-05T11:18:20.489Z,246.47
2023-05-05T11:19:20.415Z,250.00
2023-05-05T11:20:20.469Z,243.31
2023-05-05T11:21:21.489Z,244.02
2023-05-05T11:22:20.465Z,243.73
2023-05-05T11:23:20.448Z,242.18
2023-05-05T11:24:20.451Z,242.69
2023-05-05T11:25:21.448Z,245.32
2023-05-05T11:26:20.697Z,240.77
2023-05-05T11:27:21.398Z,239.84
2023-05-05T11:28:20.399Z,241.48
2023-05-05T11:29:20.382Z,241.20
2023-05-05T11:30:20.459Z,240.11
2023-05-05T11:31:20.402Z,241.85
2023-05-05T11:32:21.342Z,240.08
2023-05-05T11:33:21.333Z,238.78
2023-05-05T11:34:20.392Z,240.81
2023-05-05T11:35:20.412Z,239.17
2023-05-05T11:36:20.433Z,238.76
2023-05-05T11:37:21.501Z,236.14
2023-05-05T11:38:20.649Z,235.25
2023-05-05T11:39:20.730Z,235.50
2023-05-05T11:40:20.724Z,235.42
2023-05-05T11:41:21.773Z,232.11
2023-05-05T11:42:22.097Z,234.63
2023-05-05T11:43:20.815Z,232.28
2023-05-05T11:44:21.033Z,233.32
2023-05-05T11:45:22.090Z,232.56
2023-05-05T11:46:21.026Z,231.40
2023-05-05T11:47:21.032Z,230.95
2023-05-05T11:48:21.127Z,232.64
2023-05-05T11:49:21.203Z,229.26
2023-05-05T11:50:21.293Z,232.62
2023-05-05T11:51:21.322Z,226.55
2023-05-05T11:52:22.318Z,222.32
2023-05-05T11:53:21.396Z,221.84
2023-05-05T11:54:21.531Z,215.60
2023-05-05T11:55:21.598Z,217.20
2023-05-05T11:56:21.527Z,212.65
2023-05-05T11:57:21.568Z,212.56
2023-05-05T11:58:21.714Z,216.62
2023-05-05T11:59:21.626Z,215.88
2023-05-05T12:00:21.722Z,215.67
2023-05-05T12:01:21.680Z,214.74
2023-05-05T12:02:21.718Z,212.23
2023-05-05T12:03:22.809Z,215.08
2023-05-05T12:04:21.634Z,213.15
2023-05-05T12:05:21.803Z,214.68
2023-05-05T12:06:21.765Z,213.68
2023-05-05T12:07:21.800Z,214.56
2023-05-05T12:08:21.735Z,216.25
2023-05-05T12:09:21.735Z,212.87
2023-05-05T12:10:22.893Z,211.47
2023-05-05T12:11:21.853Z,214.79
2023-05-05T12:12:22.992Z,214.28
2023-05-05T12:13:23.050Z,211.36
2023-05-05T12:14:22.243Z,213.94
2023-05-05T12:15:23.095Z,213.49
2023-05-05T12:16:22.225Z,213.83
2023-05-05T12:17:22.148Z,210.94
2023-05-05T12:18:23.191Z,210.81
2023-05-05T12:19:22.101Z,210.95
2023-05-05T12:20:23.184Z,204.81
2023-05-05T12:21:22.189Z,194.54
2023-05-05T12:22:23.151Z,190.01
2023-05-05T12:23:23.193Z,189.22
2023-05-05T12:24:22.141Z,192.27
2023-05-05T12:25:22.162Z,194.45
2023-05-05T12:26:23.252Z,198.36
2023-05-05T12:27:22.267Z,202.92
2023-05-05T12:28:22.326Z,204.47
2023-05-05T12:29:22.276Z,205.42
2023-05-05T12:30:23.415Z,205.69
2023-05-05T12:31:22.372Z,205.81
2023-05-05T12:32:23.390Z,205.91
2023-05-05T12:33:23.409Z,208.24
2023-05-05T12:34:23.368Z,206.89
2023-05-05T12:35:22.498Z,207.78
2023-05-05T12:36:22.496Z,208.10
2023-05-05T12:37:22.478Z,206.47
2023-05-05T12:38:23.438Z,207.57
2023-05-05T12:39:22.461Z,206.13
2023-05-05T12:40:22.549Z,207.48
2023-05-05T12:41:22.450Z,207.74
2023-05-05T12:42:22.550Z,206.55
2023-05-05T12:43:22.500Z,205.14
2023-05-05T12:44:22.514Z,204.65
2023-05-05T12:45:22.562Z,205.23
2023-05-05T12:46:23.536Z,205.09
2023-05-05T12:47:23.472Z,205.54
2023-05-05T12:48:22.487Z,206.16
2023-05-05T12:49:22.445Z,203.52
2023-05-05T12:50:23.508Z,206.82
2023-05-05T12:51:23.680Z,203.61
2023-05-05T12:52:22.535Z,205.14
2023-05-05T12:53:23.518Z,205.69
2023-05-05T12:54:23.538Z,206.94
2023-05-05T12:55:22.621Z,203.05
2023-05-05T12:56:22.635Z,205.06
2023-05-05T12:57:22.623Z,205.26
2023-05-05T12:58:22.600Z,204.40
2023-05-05T12:59:22.688Z,203.63
2023-05-05T13:00:22.881Z,204.39
2023-05-05T13:01:22.786Z,205.45
2023-05-05T13:02:22.860Z,203.34
2023-05-05T13:03:22.824Z,203.86
2023-05-05T13:04:22.850Z,202.36
2023-05-05T13:05:23.856Z,203.20
2023-05-05T13:06:22.811Z,203.55
2023-05-05T13:07:22.813Z,203.33
2023-05-05T13:08:23.835Z,202.61
2023-05-05T13:09:23.856Z,202.71
2023-05-05T13:10:22.967Z,203.61
2023-05-05T13:11:22.902Z,201.43
2023-05-05T13:12:24.962Z,198.75
2023-05-05T13:13:23.028Z,201.00
2023-05-05T13:14:23.045Z,201.30
2023-05-05T13:15:23.119Z,200.56
2023-05-05T13:16:24.058Z,202.23
2023-05-05T13:17:24.092Z,203.13
2023-05-05T13:18:24.206Z,200.06
2023-05-05T13:19:23.088Z,201.22
2023-05-05T13:20:23.140Z,201.02
2023-05-05T13:21:23.182Z,199.55
2023-05-05T13:22:23.173Z,200.91
2023-05-05T13:23:25.737Z,199.23
2023-05-05T13:24:34.400Z,200.06
2023-05-05T13:25:24.264Z,200.50
2023-05-05T13:26:23.193Z,200.89
2023-05-05T13:27:24.184Z,201.06
2023-05-05T13:28:23.131Z,201.43
2023-05-05T13:29:26.113Z,200.72
2023-05-05T13:30:24.182Z,200.33
2023-05-05T13:31:24.161Z,200.55
2023-05-05T13:32:24.195Z,200.38
2023-05-05T13:33:23.058Z,199.31
2023-05-05T13:34:23.061Z,200.28
2023-05-05T13:35:23.103Z,198.59
2023-05-05T13:36:23.035Z,198.23
2023-05-05T13:37:23.090Z,199.77
2023-05-05T13:38:23.070Z,198.54
2023-05-05T13:39:24.027Z,195.68
2023-05-05T13:40:25.757Z,197.37
2023-05-05T13:41:24.134Z,198.69
2023-05-05T13:42:23.073Z,199.05
2023-05-05T13:43:23.002Z,196.97
2023-05-05T13:44:24.051Z,197.56
2023-05-05T13:45:23.023Z,195.54
2023-05-05T13:46:23.120Z,195.61
2023-05-05T13:47:23.160Z,195.27
2023-05-05T13:48:24.064Z,195.13
2023-05-05T13:49:23.038Z,194.03
2023-05-05T13:50:24.094Z,194.99
2023-05-05T13:51:23.027Z,193.54
2023-05-05T13:52:23.005Z,192.96
2023-05-05T13:53:23.012Z,195.14
2023-05-05T13:54:22.917Z,193.20
2023-05-05T13:55:23.965Z,193.97
2023-05-05T13:56:23.895Z,192.16
2023-05-05T13:57:22.887Z,192.88
2023-05-05T13:58:23.978Z,193.11
2023-05-05T13:59:22.931Z,192.72
2023-05-05T14:00:22.882Z,193.35
2023-05-05T14:01:23.019Z,192.71
2023-05-05T14:02:23.882Z,193.24
2023-05-05T14:03:22.866Z,191.46
2023-05-05T14:04:22.979Z,191.21
2023-05-05T14:05:22.918Z,190.29
2023-05-05T14:06:22.919Z,192.35
2023-05-05T14:07:22.839Z,191.95
2023-05-05T14:08:23.805Z,191.08
2023-05-05T14:09:22.844Z,189.93
2023-05-05T14:10:22.781Z,189.95
2023-05-05T14:11:22.860Z,189.46
2023-05-05T14:12:23.827Z,188.87
2023-05-05T14:13:22.790Z,189.80
2023-05-05T14:14:22.866Z,188.37
2023-05-05T14:15:22.844Z,188.12
2023-05-05T14:16:22.920Z,188.69
2023-05-05T14:17:22.743Z,187.53
2023-05-05T14:18:23.742Z,186.86
2023-05-05T14:19:23.844Z,186.58
2023-05-05T14:20:22.741Z,187.43
2023-05-05T14:21:22.839Z,185.50
2023-05-05T14:22:22.888Z,186.01
2023-05-05T14:23:23.767Z,186.27
2023-05-05T14:24:22.707Z,185.24
2023-05-05T14:25:23.759Z,184.42
2023-05-05T14:26:22.795Z,177.92
2023-05-05T14:27:22.727Z,175.39
2023-05-05T14:28:22.767Z,177.13
2023-05-05T14:29:22.694Z,177.62
2023-05-05T14:30:22.753Z,180.36
2023-05-05T14:31:22.689Z,181.28
2023-05-05T14:32:22.740Z,182.60
2023-05-05T14:33:22.786Z,180.87
2023-05-05T14:34:23.692Z,182.64
2023-05-05T14:35:23.796Z,181.61
2023-05-05T14:36:22.819Z,181.84
2023-05-05T14:37:22.841Z,181.14
2023-05-05T14:38:22.860Z,180.92
2023-05-05T14:39:22.818Z,179.54
2023-05-05T14:40:22.873Z,181.00
2023-05-05T14:41:22.907Z,180.64
2023-05-05T14:42:22.843Z,179.64
2023-05-05T14:43:22.864Z,178.83
2023-05-05T14:44:23.927Z,179.01
2023-05-05T14:45:22.943Z,179.43
2023-05-05T14:46:23.089Z,177.04
2023-05-05T14:47:23.992Z,177.90
2023-05-05T14:48:22.914Z,177.62
2023-05-05T14:49:23.939Z,176.82
2023-05-05T14:50:24.015Z,176.08
2023-05-05T14:51:23.003Z,176.75
2023-05-05T14:52:22.945Z,175.42
2023-05-05T14:53:23.019Z,174.63
2023-05-05T14:54:28.502Z,175.89
2023-05-05T14:55:24.052Z,176.16
2023-05-05T14:56:22.972Z,176.84
2023-05-05T14:57:24.044Z,176.96
2023-05-05T14:58:22.974Z,176.67
2023-05-05T14:59:24.026Z,175.30
2023-05-05T15:00:22.964Z,176.11
2023-05-05T15:01:22.941Z,175.08
2023-05-05T15:02:24.065Z,175.42
2023-05-05T15:03:22.994Z,173.67
2023-05-05T15:04:22.955Z,172.63
2023-05-05T15:05:23.937Z,174.58
2023-05-05T15:06:22.972Z,173.71
2023-05-05T15:07:23.889Z,173.16
2023-05-05T15:08:22.963Z,173.57
2023-05-05T15:09:23.917Z,172.53
2023-05-05T15:10:23.023Z,173.90
2023-05-05T15:11:22.980Z,172.21
2023-05-05T15:12:23.942Z,172.36
2023-05-05T15:13:22.966Z,171.67
2023-05-05T15:14:22.836Z,172.39
2023-05-05T15:15:23.895Z,171.04
2023-05-05T15:16:22.855Z,171.69
2023-05-05T15:17:23.932Z,174.13
2023-05-05T15:18:23.872Z,175.60
2023-05-05T15:19:22.852Z,174.09
2023-05-05T15:20:23.791Z,172.50
2023-05-05T15:21:23.900Z,175.49
2023-05-05T15:22:22.868Z,175.27
2023-05-05T15:23:22.853Z,174.28
2023-05-05T15:24:23.820Z,174.68
2023-05-05T15:25:22.764Z,175.64
2023-05-05T15:26:22.780Z,172.65
2023-05-05T15:27:22.751Z,175.62
2023-05-05T15:28:22.743Z,172.66
2023-05-05T15:29:22.736Z,176.64
